createdAt,value
2022-12-08T00:00:09.951Z,101802.19
2022-12-08T00:02:38.216Z,101805.63
2022-12-08T00:05:26.077Z,101800.53
2022-12-08T00:08:11.612Z,101793.66
2022-12-08T00:10:48.947Z,101797.66
2022-12-08T00:13:17.391Z,101796.34
2022-12-08T00:15:45.542Z,101799.09
2022-12-08T00:18:13.747Z,101781.72
2022-12-08T00:20:43.244Z,101782.28
2022-12-08T00:23:11.367Z,101776.75
2022-12-08T00:25:39.439Z,101776.22
2022-12-08T00:28:07.500Z,101777.25
2022-12-08T00:30:35.629Z,101782.63
2022-12-08T00:33:05.548Z,101774.34
2022-12-08T00:35:35.645Z,101772.16
2022-12-08T00:38:07.056Z,101764.28
2022-12-08T00:40:35.143Z,101758.78
2022-12-08T00:43:03.249Z,101759.31
2022-12-08T00:45:31.289Z,101758.34
2022-12-08T00:48:00.677Z,101755.50
2022-12-08T00:50:28.728Z,101752.63
2022-12-08T00:52:56.866Z,101754.16
2022-12-08T00:55:27.703Z,101744.66
2022-12-08T00:57:55.810Z,101746.19
2022-12-08T01:00:24.653Z,101736.56
2022-12-08T01:02:53.068Z,101731.28
2022-12-08T01:05:21.284Z,101727.66
2022-12-08T01:07:50.207Z,101727.41
2022-12-08T01:10:18.678Z,101725.44
2022-12-08T01:12:48.200Z,101732.06
2022-12-08T01:15:16.358Z,101722.56
2022-12-08T01:17:44.528Z,101723.22
2022-12-08T01:20:13.346Z,101721.25
2022-12-08T01:22:41.529Z,101725.31
2022-12-08T01:25:10.362Z,101722.69
2022-12-08T01:27:38.413Z,101713.97
2022-12-08T01:30:09.611Z,101712.09
2022-12-08T01:32:37.848Z,101710.19
2022-12-08T01:35:06.411Z,101709.97
2022-12-08T01:37:35.914Z,101709.75
2022-12-08T01:40:04.355Z,101706.22
2022-12-08T01:42:34.553Z,101706.00
2022-12-08T01:45:03.414Z,101703.56
2022-12-08T01:47:39.342Z,101697.38
2022-12-08T01:50:10.310Z,101696.50
2022-12-08T01:52:42.668Z,101701.59
2022-12-08T01:55:17.925Z,101698.91
2022-12-08T01:57:49.415Z,101697.81
2022-12-08T02:00:20.202Z,101692.72
2022-12-08T02:02:55.004Z,101691.72
2022-12-08T02:05:26.724Z,101692.19
2022-12-08T02:07:56.736Z,101687.88
2022-12-08T02:10:25.820Z,101689.41
2022-12-08T02:12:57.135Z,101690.09
2022-12-08T02:15:34.141Z,101684.66
2022-12-08T02:18:13.319Z,101681.91
2022-12-08T02:20:54.612Z,101685.19
2022-12-08T02:23:30.392Z,101685.97
2022-12-08T02:26:24.600Z,101680.88
2022-12-08T02:29:21.547Z,101678.34
2022-12-08T02:31:59.037Z,101676.59
2022-12-08T02:34:33.100Z,101676.38
2022-12-08T02:37:10.545Z,101675.50
2022-12-08T02:39:46.088Z,101673.84
2022-12-08T02:42:24.250Z,101673.06
2022-12-08T02:44:58.678Z,101675.72
2022-12-08T02:47:29.750Z,101666.22
2022-12-08T02:50:00.205Z,101664.44
2022-12-08T02:52:45.262Z,101659.38
2022-12-08T02:55:25.577Z,101663.34
2022-12-08T02:58:21.130Z,101659.69
2022-12-08T03:01:03.025Z,101652.75
2022-12-08T03:03:40.546Z,101649.88
2022-12-08T03:06:18.511Z,101641.25
2022-12-08T03:08:53.517Z,101641.00
2022-12-08T03:11:27.200Z,101636.59
2022-12-08T03:14:00.315Z,101633.19
2022-12-08T03:16:30.785Z,101631.31
2022-12-08T03:19:03.533Z,101630.41
2022-12-08T03:21:35.235Z,101620.25
2022-12-08T03:24:07.772Z,101624.56
2022-12-08T03:26:42.537Z,101618.16
2022-12-08T03:29:10.931Z,101602.63
2022-12-08T03:31:43.274Z,101608.00
2022-12-08T03:34:13.931Z,101595.88
2022-12-08T03:36:45.593Z,101597.97
2022-12-08T03:39:13.700Z,101594.22
2022-12-08T03:41:41.921Z,101589.59
2022-12-08T03:44:10.005Z,101588.25
2022-12-08T03:46:38.092Z,101583.38
2022-12-08T03:49:06.433Z,101580.28
2022-12-08T03:51:34.672Z,101581.59
2022-12-08T03:54:04.279Z,101569.22
2022-12-08T03:56:34.356Z,101578.94
2022-12-08T03:59:02.474Z,101576.13
2022-12-08T04:01:30.656Z,101567.19
2022-12-08T04:03:58.795Z,101561.66
2022-12-08T04:06:27.206Z,101554.31
2022-12-08T04:08:55.282Z,101547.91
2022-12-08T04:11:24.850Z,101555.72
2022-12-08T04:13:53.112Z,101548.97
2022-12-08T04:16:23.606Z,101549.66
2022-12-08T04:18:51.878Z,101547.91
2022-12-08T04:21:21.591Z,101542.81
2022-12-08T04:23:50.114Z,101532.06
2022-12-08T04:26:18.753Z,101530.50
2022-12-08T04:28:48.504Z,101534.81
2022-12-08T04:31:16.660Z,101522.88
2022-12-08T04:33:44.871Z,101532.19
2022-12-08T04:36:13.093Z,101525.19
2022-12-08T04:38:41.218Z,101528.25
2022-12-08T04:41:09.586Z,101524.28
2022-12-08T04:43:38.077Z,101526.97
2022-12-08T04:46:10.195Z,101525.47
2022-12-08T04:48:40.055Z,101528.34
2022-12-08T04:51:08.606Z,101514.44
2022-12-08T04:53:36.776Z,101516.75
2022-12-08T04:56:05.413Z,101509.63
2022-12-08T04:58:33.477Z,101506.94
2022-12-08T05:01:01.665Z,101507.72
2022-12-08T05:03:31.301Z,101511.25
2022-12-08T05:06:01.107Z,101504.81
2022-12-08T05:08:29.981Z,101505.16
2022-12-08T05:11:03.717Z,101505.47
2022-12-08T05:13:32.012Z,101494.66
2022-12-08T05:16:05.299Z,101490.75
2022-12-08T05:18:35.604Z,101481.69
2022-12-08T05:21:03.685Z,101478.59
2022-12-08T05:23:32.054Z,101483.84
2022-12-08T05:26:00.289Z,101479.00
2022-12-08T05:28:44.374Z,101479.31
2022-12-08T05:31:13.430Z,101486.47
2022-12-08T05:33:43.642Z,101486.66
2022-12-08T05:36:13.240Z,101485.31
2022-12-08T05:38:41.962Z,101475.34
2022-12-08T05:41:11.570Z,101476.56
2022-12-08T05:43:39.798Z,101474.97
2022-12-08T05:46:08.786Z,101481.03
2022-12-08T05:48:37.333Z,101490.53
2022-12-08T05:51:09.489Z,101486.44
2022-12-08T05:53:37.541Z,101487.31
2022-12-08T05:56:06.145Z,101484.75
2022-12-08T05:58:34.265Z,101490.75
2022-12-08T06:01:03.420Z,101484.75
2022-12-08T06:03:31.567Z,101472.72
2022-12-08T06:05:59.923Z,101479.28
2022-12-08T06:08:29.427Z,101468.91
2022-12-08T06:10:57.588Z,101462.94
2022-12-08T06:13:25.887Z,101465.56
2022-12-08T06:15:55.602Z,101458.94
2022-12-08T06:18:26.191Z,101460.91
2022-12-08T06:21:03.888Z,101451.69
2022-12-08T06:23:33.573Z,101456.00
2022-12-08T06:26:06.417Z,101455.34
2022-12-08T06:28:37.091Z,101451.13
2022-12-08T06:31:10.038Z,101450.16
2022-12-08T06:33:38.820Z,101452.69
2022-12-08T06:36:08.241Z,101458.16
2022-12-08T06:38:41.836Z,101448.38
2022-12-08T06:41:12.160Z,101452.28
2022-12-08T06:43:41.114Z,101458.50
2022-12-08T06:46:11.982Z,101452.03
2022-12-08T06:48:40.118Z,101443.00
2022-12-08T06:51:10.489Z,101446.78
2022-12-08T06:53:40.903Z,101450.66
2022-12-08T06:56:09.708Z,101450.47
2022-12-08T06:58:40.140Z,101443.72
2022-12-08T07:01:09.866Z,101435.13
2022-12-08T07:03:39.451Z,101433.38
2022-12-08T07:06:08.659Z,101433.22
2022-12-08T07:08:36.826Z,101428.84
2022-12-08T07:11:09.812Z,101435.28
2022-12-08T07:13:38.158Z,101426.25
2022-12-08T07:16:07.967Z,101426.78
2022-12-08T07:18:36.751Z,101425.59
2022-12-08T07:21:06.263Z,101429.47
2022-12-08T07:23:35.295Z,101437.44
2022-12-08T07:26:04.165Z,101433.50
2022-12-08T07:28:34.666Z,101434.84
2022-12-08T07:31:05.584Z,101437.72
2022-12-08T07:33:34.662Z,101440.81
2022-12-08T07:36:04.494Z,101442.91
2022-12-08T07:38:33.336Z,101444.13
2022-12-08T07:41:03.427Z,101441.25
2022-12-08T07:43:31.283Z,101434.31
2022-12-08T07:46:01.228Z,101431.78
2022-12-08T07:48:29.542Z,101433.22
2022-12-08T07:51:02.586Z,101434.75
2022-12-08T07:53:33.583Z,101427.91
2022-12-08T07:56:01.953Z,101425.38
2022-12-08T07:58:30.030Z,101422.84
2022-12-08T08:00:58.304Z,101421.31
2022-12-08T08:03:28.232Z,101430.59
2022-12-08T08:05:56.679Z,101427.16
2022-12-08T08:08:24.949Z,101419.22
2022-12-08T08:10:53.194Z,101429.34
2022-12-08T08:13:21.437Z,101431.78
2022-12-08T08:15:49.656Z,101429.03
2022-12-08T08:18:17.871Z,101431.56
2022-12-08T08:20:47.368Z,101426.50
2022-12-08T08:23:15.454Z,101430.69
2022-12-08T08:25:43.658Z,101431.38
2022-12-08T08:28:11.833Z,101426.97
2022-12-08T08:30:43.307Z,101429.34
2022-12-08T08:33:11.432Z,101417.56
2022-12-08T08:35:39.827Z,101421.22
2022-12-08T08:38:10.365Z,101423.75
2022-12-08T08:40:38.557Z,101422.97
2022-12-08T08:43:09.063Z,101415.25
2022-12-08T08:45:37.334Z,101414.81
2022-12-08T08:48:05.660Z,101420.00
2022-12-08T08:50:37.594Z,101414.13
2022-12-08T08:53:06.281Z,101416.13
2022-12-08T08:55:36.067Z,101407.84
2022-12-08T08:58:04.136Z,101417.47
2022-12-08T09:00:32.215Z,101426.16
2022-12-08T09:03:00.535Z,101427.13
2022-12-08T09:05:28.657Z,101414.56
2022-12-08T09:07:58.334Z,101418.31
2022-12-08T09:10:26.606Z,101416.78
2022-12-08T09:12:56.196Z,101413.13
2022-12-08T09:15:24.333Z,101408.44
2022-12-08T09:17:52.543Z,101404.59
2022-12-08T09:20:21.050Z,101403.25
2022-12-08T09:22:50.237Z,101401.34
2022-12-08T09:25:18.620Z,101401.75
2022-12-08T09:27:46.791Z,101399.75
2022-12-08T09:30:16.607Z,101405.34
2022-12-08T09:32:44.986Z,101404.41
2022-12-08T09:35:13.115Z,101403.38
2022-12-08T09:37:41.272Z,101405.66
2022-12-08T09:40:12.125Z,101413.31
2022-12-08T09:42:52.174Z,101409.91
2022-12-08T09:45:23.883Z,101409.16
2022-12-08T09:48:02.192Z,101409.97
2022-12-08T09:50:35.032Z,101399.69
2022-12-08T09:53:10.384Z,101403.91
2022-12-08T09:55:44.131Z,101399.47
2022-12-08T09:58:21.870Z,101395.75
2022-12-08T10:00:51.518Z,101400.66
2022-12-08T10:03:28.373Z,101398.19
2022-12-08T10:06:05.500Z,101393.59
2022-12-08T10:08:43.656Z,101391.63
2022-12-08T10:11:19.258Z,101381.75
2022-12-08T10:13:57.119Z,101379.94
2022-12-08T10:16:34.955Z,101384.41
2022-12-08T10:19:12.559Z,101382.28
2022-12-08T10:21:41.974Z,101386.69
2022-12-08T10:24:19.360Z,101381.72
2022-12-08T10:26:48.612Z,101387.34
2022-12-08T10:29:17.007Z,101388.94
2022-12-08T10:31:46.577Z,101391.91
2022-12-08T10:34:20.327Z,101384.47
2022-12-08T10:36:51.135Z,101385.47
2022-12-08T10:39:34.378Z,101380.25
2022-12-08T10:42:07.525Z,101375.19
2022-12-08T10:44:42.297Z,101378.03
2022-12-08T10:47:15.416Z,101379.72
2022-12-08T10:49:43.596Z,101377.84
2022-12-08T10:52:24.262Z,101372.66
2022-12-08T10:54:54.635Z,101372.47
2022-12-08T10:57:25.494Z,101377.16
2022-12-08T10:59:56.163Z,101369.91
2022-12-08T11:02:25.834Z,101365.38
2022-12-08T11:05:00.551Z,101367.50
2022-12-08T11:07:29.522Z,101361.91
2022-12-08T11:09:59.205Z,101366.50
2022-12-08T11:12:31.540Z,101355.69
2022-12-08T11:15:03.653Z,101354.41
2022-12-08T11:17:39.714Z,101358.13
2022-12-08T11:20:22.980Z,101355.75
2022-12-08T11:22:55.134Z,101348.59
2022-12-08T11:25:25.836Z,101340.75
2022-12-08T11:27:58.263Z,101338.97
2022-12-08T11:30:29.275Z,101333.47
2022-12-08T11:33:02.621Z,101329.41
2022-12-08T11:35:35.126Z,101326.63
2022-12-08T11:38:21.225Z,101328.16
2022-12-08T11:40:53.636Z,101335.19
2022-12-08T11:43:28.784Z,101332.88
2022-12-08T11:46:01.771Z,101340.63
2022-12-08T11:48:37.323Z,101337.28
2022-12-08T11:51:13.279Z,101337.41
2022-12-08T11:53:48.641Z,101329.47
2022-12-08T11:56:23.145Z,101327.25
2022-12-08T11:58:57.214Z,101324.88
2022-12-08T12:01:27.483Z,101318.66
2022-12-08T12:04:06.939Z,101318.19
2022-12-08T12:07:07.329Z,101312.63
2022-12-08T12:09:49.508Z,101308.97
2022-12-08T12:12:36.409Z,101315.53
2022-12-08T12:15:50.213Z,101321.25
2022-12-08T12:18:25.984Z,101311.06
2022-12-08T12:20:59.368Z,101296.84
2022-12-08T12:23:37.741Z,101298.16
2022-12-08T12:26:08.824Z,101306.50
2022-12-08T12:28:46.512Z,101304.69
2022-12-08T12:31:19.569Z,101298.34
2022-12-08T12:33:49.161Z,101298.06
2022-12-08T12:36:19.898Z,101291.72
2022-12-08T12:39:04.233Z,101287.06
2022-12-08T12:41:38.996Z,101291.78
2022-12-08T12:44:43.624Z,101285.53
2022-12-08T12:47:36.301Z,101282.59
2022-12-08T12:50:10.017Z,101284.78
2022-12-08T12:52:47.063Z,101293.72
2022-12-08T12:55:55.801Z,101287.63
2022-12-08T12:58:37.761Z,101275.47
2022-12-08T13:01:57.301Z,101278.69
2022-12-08T13:04:39.046Z,101283.50
2022-12-08T13:07:07.405Z,101274.56
2022-12-08T13:09:41.698Z,101271.41
2022-12-08T13:12:12.609Z,101271.75
2022-12-08T13:14:48.045Z,101277.31
2022-12-08T13:17:24.093Z,101270.75
2022-12-08T13:19:56.299Z,101264.91
2022-12-08T13:23:01.643Z,101259.81
2022-12-08T13:25:52.938Z,101264.97
2022-12-08T13:28:30.044Z,101264.13
2022-12-08T13:30:59.652Z,101257.31
2022-12-08T13:33:33.742Z,101245.66
2022-12-08T13:36:18.448Z,101252.66
2022-12-08T13:38:48.878Z,101256.91
2022-12-08T13:41:23.829Z,101245.00
2022-12-08T13:44:50.487Z,101241.41
2022-12-08T13:58:21.267Z,101245.69
2022-12-08T14:01:05.193Z,101248.28
2022-12-08T14:03:52.964Z,101252.72
2022-12-08T14:06:33.048Z,101242.53
2022-12-08T14:09:10.252Z,101233.84
2022-12-08T14:11:42.460Z,101232.53
2022-12-08T14:14:32.774Z,101233.84
2022-12-08T14:17:07.800Z,101224.63
2022-12-08T14:19:36.571Z,101234.25
2022-12-08T14:22:12.644Z,101217.91
2022-12-08T14:24:42.178Z,101220.38
2022-12-08T14:27:16.652Z,101223.97
2022-12-08T14:29:47.793Z,101233.41
2022-12-08T14:32:35.478Z,101216.13
2022-12-08T14:35:19.258Z,101214.41
2022-12-08T14:37:50.111Z,101217.78
2022-12-08T14:40:23.783Z,101211.75
2022-12-08T14:42:54.124Z,101213.22
2022-12-08T14:45:34.968Z,101210.44
2022-12-08T14:48:21.824Z,101208.53
2022-12-08T14:51:01.844Z,101211.59
2022-12-08T14:53:37.093Z,101203.56
2022-12-08T14:56:10.022Z,101213.38
2022-12-08T14:58:38.188Z,101214.97
2022-12-08T15:01:10.492Z,101220.91
2022-12-08T15:03:39.871Z,101215.38
2022-12-08T15:06:09.696Z,101215.00
2022-12-08T15:08:53.802Z,101213.03
2022-12-08T15:11:37.041Z,101221.25
2022-12-08T15:14:29.078Z,101219.16
2022-12-08T15:17:00.911Z,101223.94
2022-12-08T15:19:57.621Z,101212.44
2022-12-08T15:22:26.753Z,101216.38
2022-12-08T15:24:55.142Z,101221.13
2022-12-08T15:27:27.705Z,101220.72
2022-12-08T15:29:55.977Z,101216.19
2022-12-08T15:32:25.572Z,101212.34
2022-12-08T15:34:53.845Z,101214.47
2022-12-08T15:37:26.535Z,101217.47
2022-12-08T15:39:54.756Z,101209.31
2022-12-08T15:42:23.096Z,101210.75
2022-12-08T15:44:51.333Z,101211.22
2022-12-08T15:47:21.435Z,101204.69
2022-12-08T15:49:52.698Z,101209.31
2022-12-08T15:52:25.307Z,101208.59
2022-12-08T15:54:54.882Z,101217.56
2022-12-08T15:58:04.056Z,101211.94
2022-12-08T16:04:13.921Z,101211.78
2022-12-08T16:07:04.789Z,101213.69
2022-12-08T16:09:16.615Z,101210.63
2022-12-08T16:12:08.246Z,101216.22
2022-12-08T16:17:31.269Z,101214.44
2022-12-08T16:19:59.915Z,101216.59
2022-12-08T16:25:22.075Z,101216.66
2022-12-08T16:28:05.370Z,101214.53
2022-12-08T16:30:38.160Z,101216.72
2022-12-08T16:33:07.712Z,101218.09
2022-12-08T16:35:35.842Z,101210.00
2022-12-08T16:38:05.580Z,101216.44
2022-12-08T16:40:53.888Z,101213.63
2022-12-08T16:43:21.037Z,101220.19
2022-12-08T16:45:49.292Z,101215.50
2022-12-08T16:48:17.480Z,101221.09
2022-12-08T16:50:46.990Z,101217.19
2022-12-08T16:53:16.609Z,101215.25
2022-12-08T16:55:48.376Z,101225.91
2022-12-08T16:58:18.489Z,101215.44
2022-12-08T17:00:47.460Z,101218.47
2022-12-08T17:03:17.554Z,101213.88
2022-12-08T17:05:45.520Z,101216.22
2022-12-08T17:08:14.147Z,101221.00
2022-12-08T17:10:44.060Z,101224.03
2022-12-08T17:13:13.230Z,101224.59
2022-12-08T17:15:42.457Z,101225.09
2022-12-08T17:18:10.531Z,101216.19
2022-12-08T17:20:40.805Z,101214.13
2022-12-08T17:23:08.945Z,101219.91
2022-12-08T17:25:37.518Z,101224.75
2022-12-08T17:28:07.382Z,101223.69
2022-12-08T17:30:35.644Z,101219.28
2022-12-08T17:33:04.391Z,101218.91
2022-12-08T17:35:32.504Z,101223.53
2022-12-08T17:38:00.900Z,101219.06
2022-12-08T17:40:29.124Z,101224.69
2022-12-08T17:43:00.444Z,101217.66
2022-12-08T17:45:29.990Z,101229.19
2022-12-08T17:47:58.181Z,101227.19
2022-12-08T17:50:26.286Z,101223.56
2022-12-08T17:52:54.468Z,101224.13
2022-12-08T17:55:22.767Z,101218.88
2022-12-08T17:57:50.837Z,101218.66
2022-12-08T18:00:19.262Z,101227.81
2022-12-08T18:02:48.793Z,101233.47
2022-12-08T18:05:16.922Z,101228.94
2022-12-08T18:07:45.051Z,101230.38
2022-12-08T18:10:13.761Z,101230.19
2022-12-08T18:12:41.925Z,101224.13
2022-12-08T18:15:13.786Z,101217.19
2022-12-08T18:17:41.976Z,101223.81
2022-12-08T18:20:13.484Z,101228.78
2022-12-08T18:22:42.415Z,101229.34
2022-12-08T18:25:11.641Z,101222.31
2022-12-08T18:27:43.147Z,101222.31
2022-12-08T18:30:16.305Z,101220.53
2022-12-08T18:32:44.466Z,101222.09
2022-12-08T18:35:14.174Z,101223.75
2022-12-08T18:37:43.271Z,101226.28
2022-12-08T18:40:12.969Z,101223.44
2022-12-08T18:42:41.003Z,101227.59
2022-12-08T18:45:10.071Z,101222.53
2022-12-08T18:47:40.820Z,101222.53
2022-12-08T18:50:11.123Z,101216.38
2022-12-08T18:52:40.855Z,101216.19
2022-12-08T18:55:09.735Z,101214.50
2022-12-08T18:57:39.457Z,101217.03
2022-12-08T19:00:09.608Z,101225.31
2022-12-08T19:02:47.157Z,101221.03
2022-12-08T19:05:25.517Z,101220.78
2022-12-08T19:07:56.191Z,101228.22
2022-12-08T19:10:26.499Z,101221.38
2022-12-08T19:12:55.450Z,101218.50
2022-12-08T19:15:23.723Z,101208.47
2022-12-08T19:17:55.242Z,101211.78
2022-12-08T19:20:23.807Z,101206.84
2022-12-08T19:22:52.158Z,101209.38
2022-12-08T19:25:24.901Z,101204.94
2022-12-08T19:27:53.127Z,101203.19
2022-12-08T19:30:21.323Z,101198.91
2022-12-08T19:32:50.959Z,101200.53
2022-12-08T19:35:24.527Z,101194.59
2022-12-08T19:37:52.759Z,101197.91
2022-12-08T19:40:39.777Z,101199.44
2022-12-08T19:43:34.769Z,101199.44
2022-12-08T19:46:03.260Z,101197.59
2022-12-08T19:48:31.535Z,101199.22
2022-12-08T19:51:00.251Z,101200.03
2022-12-08T19:53:28.902Z,101199.44
2022-12-08T19:55:58.488Z,101196.38
2022-12-08T19:58:26.749Z,101196.22
2022-12-08T20:00:55.061Z,101195.66
2022-12-08T20:03:23.893Z,101192.56
2022-12-08T20:05:54.047Z,101195.09
2022-12-08T20:08:22.483Z,101192.47
2022-12-08T20:10:59.075Z,101204.91
2022-12-08T20:13:59.190Z,101201.28
2022-12-08T20:16:27.134Z,101193.50
2022-12-08T20:18:58.477Z,101190.81
2022-12-08T20:21:30.493Z,101196.78
2022-12-08T20:23:58.499Z,101202.28
2022-12-08T20:26:29.532Z,101201.16
2022-12-08T20:29:09.207Z,101193.41
2022-12-08T20:31:58.648Z,101205.84
2022-12-08T20:34:41.331Z,101204.50
2022-12-08T20:37:48.846Z,101213.75
2022-12-08T20:40:25.274Z,101208.13
2022-12-08T20:43:11.533Z,101208.31
2022-12-08T20:46:21.808Z,101212.84
2022-12-08T20:49:07.159Z,101205.47
2022-12-08T20:51:52.640Z,101212.50
2022-12-08T20:54:20.989Z,101213.16
2022-12-08T20:56:49.101Z,101211.31
2022-12-08T20:59:18.240Z,101217.69
2022-12-08T21:01:48.063Z,101213.22
2022-12-08T21:04:16.839Z,101214.97
2022-12-08T21:06:45.477Z,101207.56
2022-12-08T21:09:14.091Z,101213.84
2022-12-08T21:11:42.748Z,101208.31
2022-12-08T21:14:11.668Z,101196.81
2022-12-08T21:16:39.816Z,101197.88
2022-12-08T21:19:09.970Z,101209.03
2022-12-08T21:21:38.272Z,101204.25
2022-12-08T21:24:07.235Z,101211.41
2022-12-08T21:26:35.447Z,101200.88
2022-12-08T21:29:03.740Z,101206.75
2022-12-08T21:31:36.554Z,101209.22
2022-12-08T21:34:05.360Z,101205.53
2022-12-08T21:36:35.109Z,101198.41
2022-12-08T21:39:05.106Z,101209.75
2022-12-08T21:41:50.659Z,101217.88
2022-12-08T21:44:20.500Z,101214.75
2022-12-08T21:46:51.839Z,101215.03
2022-12-08T21:49:20.208Z,101218.56
2022-12-08T21:51:50.040Z,101223.84
2022-12-08T21:54:19.192Z,101237.63
2022-12-08T21:56:49.101Z,101241.13
2022-12-08T21:59:18.130Z,101227.75
2022-12-08T22:01:46.739Z,101221.78
2022-12-08T22:04:19.120Z,101214.16
2022-12-08T22:06:47.489Z,101200.59
2022-12-08T22:09:17.105Z,101200.38
2022-12-08T22:11:45.945Z,101203.91
2022-12-08T22:14:15.333Z,101203.22
2022-12-08T22:16:45.315Z,101197.25
2022-12-08T22:19:13.681Z,101207.44
2022-12-08T22:21:42.039Z,101202.44
2022-12-08T22:24:10.798Z,101199.03
2022-12-08T22:26:40.255Z,101198.03
2022-12-08T22:29:20.343Z,101203.69
2022-12-08T22:31:48.180Z,101222.09
2022-12-08T22:34:18.582Z,101222.78
2022-12-08T22:36:51.471Z,101219.16
2022-12-08T22:39:19.620Z,101216.63
2022-12-08T22:41:49.115Z,101208.19
2022-12-08T22:44:17.386Z,101216.78
2022-12-08T22:46:45.449Z,101211.72
2022-12-08T22:49:13.527Z,101213.47
2022-12-08T22:51:46.609Z,101217.69
2022-12-08T22:54:14.747Z,101219.72
2022-12-08T22:56:43.100Z,101210.75
2022-12-08T22:59:12.686Z,101214.44
2022-12-08T23:01:40.840Z,101208.69
2022-12-08T23:04:15.816Z,101206.25
2022-12-08T23:06:45.935Z,101208.38
2022-12-08T23:09:14.015Z,101215.63
2022-12-08T23:11:42.294Z,101219.84
2022-12-08T23:14:10.783Z,101207.91
2022-12-08T23:16:40.503Z,101196.47
2022-12-08T23:19:08.681Z,101191.69
2022-12-08T23:21:36.947Z,101184.34
2022-12-08T23:24:05.293Z,101188.25
2022-12-08T23:26:35.414Z,101178.66
2022-12-08T23:29:04.531Z,101176.13
2022-12-08T23:31:32.991Z,101182.88
2022-12-08T23:34:03.617Z,101178.56
2022-12-08T23:36:32.023Z,101176.13
2022-12-08T23:39:00.252Z,101177.88
2022-12-08T23:41:28.508Z,101178.78
2022-12-08T23:43:56.866Z,101181.41
2022-12-08T23:46:25.489Z,101173.88
2022-12-08T23:48:53.781Z,101179.09
2022-12-08T23:51:23.339Z,101180.03
2022-12-08T23:53:51.459Z,101179.25
2022-12-08T23:56:22.186Z,101186.72
2022-12-08T23:58:52.439Z,101179.66
